Time;durP1;ratioP1;P1;durP2;ratioP2;P2;SDS_P1;SDS_P2;PMS_P1;PMS_P2;Temp;Humidity;BMP_temperature;BMP_pressure;BME280_temperature;BME280_humidity;BME280_pressure;Samples;Min_cycle;Max_cycle;Signal;HPM_P1;HPM_P2
2022/06/16 00:00:41;;;;;;;9.00;3.97;;;;;;;;;;5047780;28;20561;-70
2022/06/16 00:03:07;;;;;;;7.93;3.40;;;;;;;;;;5049638;28;20036;-70
2022/06/16 00:05:36;;;;;;;9.17;3.50;;;;;;;;;;5044406;28;20119;-69
2022/06/16 00:08:03;;;;;;;8.77;3.40;;;;;;;;;;5046031;28;20024;-69
2022/06/16 00:10:28;;;;;;;9.63;3.60;;;;;;;;;;5047074;28;20021;-69
2022/06/16 00:12:53;;;;;;;10.03;3.47;;;;;;;;;;5050382;28;20381;-69
2022/06/16 00:15:20;;;;;;;7.73;3.57;;;;;;;;;;5049912;28;20543;-69
2022/06/16 00:17:46;;;;;;;7.30;3.83;;;;;;;;;;5049912;28;20035;-69
2022/06/16 00:20:11;;;;;;;8.97;4.10;;;;;;;;;;5050199;28;20029;-69
2022/06/16 00:22:37;;;;;;;8.93;3.37;;;;;;;;;;5049327;28;20437;-69
2022/06/16 00:25:03;;;;;;;7.80;3.70;;;;;;;;;;5046959;28;20913;-69
2022/06/16 00:27:28;;;;;;;8.93;3.77;;;;;;;;;;5049912;28;20056;-69
2022/06/16 00:29:54;;;;;;;9.57;3.70;;;;;;;;;;5051860;28;20120;-69
2022/06/16 00:32:19;;;;;;;9.77;3.53;;;;;;;;;;5032877;28;20021;-69
2022/06/16 00:34:44;;;;;;;10.27;3.90;;;;;;;;;;5056611;28;20051;-69
2022/06/16 00:37:10;;;;;;;9.07;4.00;;;;;;;;;;5058195;28;20047;-69
2022/06/16 00:39:35;;;;;;;8.53;4.10;;;;;;;;;;5055764;28;20476;-69
2022/06/16 00:42:10;;;;;;;14.03;4.97;;;;;;;;;;5056920;28;20472;-69
2022/06/16 00:44:46;;;;;;;8.70;4.50;;;;;;;;;;5056070;28;20127;-69
2022/06/16 00:47:12;;;;;;;13.20;4.60;;;;;;;;;;5057453;28;20828;-69
2022/06/16 00:49:40;;;;;;;10.93;4.60;;;;;;;;;;5057398;28;20103;-69
2022/06/16 00:52:11;;;;;;;11.53;4.73;;;;;;;;;;5057336;28;20016;-69
2022/06/16 00:54:40;;;;;;;9.63;5.15;;;;;;;;;;5047109;28;20022;-69
2022/06/16 00:57:07;;;;;;;12.17;5.40;;;;;;;;;;5046730;28;20064;-69
2022/06/16 00:59:33;;;;;;;8.23;4.77;;;;;;;;;;5043914;28;20025;-69
2022/06/16 01:01:59;;;;;;;10.97;4.80;;;;;;;;;;5046628;28;20136;-69
2022/06/16 01:07:10;;;;;;;11.37;5.17;;;;;;;;;;5047012;28;20511;-69
2022/06/16 01:09:36;;;;;;;10.73;4.93;;;;;;;;;;5053778;28;20016;-69
2022/06/16 01:14:57;;;;;;;10.40;5.00;;;;;;;;;;5046903;28;20039;-69
2022/06/16 01:17:47;;;;;;;11.93;5.63;;;;;;;;;;5053389;28;20013;-70
2022/06/16 01:20:17;;;;;;;11.20;5.90;;;;;;;;;;5049408;28;20048;-69
2022/06/16 01:22:54;;;;;;;11.07;5.73;;;;;;;;;;5043803;28;20062;-69
2022/06/16 01:25:38;;;;;;;13.67;5.83;;;;;;;;;;5047187;28;20027;-69
2022/06/16 01:28:25;;;;;;;11.27;5.53;;;;;;;;;;5049065;28;20025;-69
2022/06/16 01:30:56;;;;;;;13.23;6.20;;;;;;;;;;5047191;28;20013;-69
2022/06/16 01:33:24;;;;;;;13.40;6.30;;;;;;;;;;5051006;28;20028;-70
2022/06/16 01:36:10;;;;;;;12.80;6.57;;;;;;;;;;5046030;28;20034;-69
2022/06/16 01:38:35;;;;;;;10.90;5.80;;;;;;;;;;5021329;28;20035;-69
2022/06/16 01:41:09;;;;;;;12.70;6.00;;;;;;;;;;5053916;28;20397;-69
2022/06/16 01:43:37;;;;;;;12.60;6.37;;;;;;;;;;5055941;28;20055;-69
2022/06/16 01:46:05;;;;;;;12.90;5.93;;;;;;;;;;5049838;28;20105;-69
2022/06/16 01:48:32;;;;;;;9.97;5.57;;;;;;;;;;5052564;28;20024;-69
2022/06/16 01:51:03;;;;;;;10.93;6.17;;;;;;;;;;5032965;28;20025;-69
2022/06/16 01:53:37;;;;;;;9.80;5.60;;;;;;;;;;5051034;28;20021;-69
2022/06/16 01:56:17;;;;;;;13.03;6.00;;;;;;;;;;5048738;28;20032;-69
2022/06/16 01:58:46;;;;;;;12.13;6.00;;;;;;;;;;5042128;28;20025;-69
2022/06/16 02:01:15;;;;;;;14.23;6.47;;;;;;;;;;5046434;28;20075;-69
2022/06/16 02:03:43;;;;;;;12.30;5.83;;;;;;;;;;5029902;28;20059;-69
2022/06/16 02:06:16;;;;;;;11.37;6.07;;;;;;;;;;5046114;28;20071;-69
2022/06/16 02:08:44;;;;;;;14.97;6.53;;;;;;;;;;5049603;28;20427;-69
2022/06/16 02:11:14;;;;;;;15.47;6.10;;;;;;;;;;5048223;28;20063;-69
2022/06/16 02:13:44;;;;;;;11.23;5.10;;;;;;;;;;5052021;28;20051;-69
2022/06/16 02:16:12;;;;;;;10.57;5.70;;;;;;;;;;5042315;28;20595;-69
2022/06/16 02:18:39;;;;;;;12.60;5.60;;;;;;;;;;5043673;28;20532;-69
2022/06/16 02:21:13;;;;;;;13.67;5.80;;;;;;;;;;5048241;28;20095;-69
2022/06/16 02:23:39;;;;;;;12.80;6.20;;;;;;;;;;5049464;28;20031;-69
2022/06/16 02:26:04;;;;;;;9.60;5.57;;;;;;;;;;5046751;28;20024;-69
2022/06/16 02:28:29;;;;;;;12.73;6.20;;;;;;;;;;5047081;28;20127;-69
2022/06/16 02:31:02;;;;;;;11.27;6.30;;;;;;;;;;5042130;28;20496;-69
2022/06/16 02:33:46;;;;;;;15.03;6.57;;;;;;;;;;5049070;28;20099;-69
2022/06/16 02:36:19;;;;;;;15.37;7.13;;;;;;;;;;5051562;28;20021;-69
2022/06/16 02:38:50;;;;;;;12.03;6.47;;;;;;;;;;5051454;28;20028;-69
2022/06/16 02:41:33;;;;;;;16.38;7.35;;;;;;;;;;5051566;28;20546;-69
2022/06/16 02:44:05;;;;;;;14.80;7.30;;;;;;;;;;5048015;28;20103;-69
2022/06/16 02:46:49;;;;;;;13.90;7.03;;;;;;;;;;5050594;28;20029;-69
2022/06/16 02:49:17;;;;;;;17.73;8.03;;;;;;;;;;5048624;28;20127;-69
2022/06/16 02:51:48;;;;;;;16.27;8.17;;;;;;;;;;5050534;28;20039;-71
2022/06/16 02:54:22;;;;;;;14.43;8.18;;;;;;;;;;5049810;28;20028;-71
2022/06/16 02:56:52;;;;;;;16.30;8.57;;;;;;;;;;5052072;28;20028;-71
2022/06/16 02:59:21;;;;;;;17.30;8.43;;;;;;;;;;5049537;28;20048;-71
2022/06/16 03:01:47;;;;;;;15.53;8.30;;;;;;;;;;5051735;28;20059;-70
2022/06/16 03:04:15;;;;;;;16.73;8.73;;;;;;;;;;5048614;28;20368;-69
2022/06/16 03:06:40;;;;;;;16.10;8.13;;;;;;;;;;5041652;28;20048;-69
2022/06/16 03:09:05;;;;;;;14.63;8.50;;;;;;;;;;5050320;28;20025;-69
2022/06/16 03:11:31;;;;;;;19.43;8.57;;;;;;;;;;5050859;28;20481;-69
2022/06/16 03:13:57;;;;;;;17.00;9.07;;;;;;;;;;5051536;28;20473;-69
2022/06/16 03:16:22;;;;;;;16.53;9.23;;;;;;;;;;5051671;28;20025;-69
2022/06/16 03:18:48;;;;;;;17.93;8.70;;;;;;;;;;5050624;28;20033;-69
2022/06/16 03:21:13;;;;;;;16.57;9.10;;;;;;;;;;5050050;28;20047;-69
2022/06/16 03:23:39;;;;;;;14.70;9.00;;;;;;;;;;5051952;28;20029;-69
2022/06/16 03:26:04;;;;;;;22.03;9.30;;;;;;;;;;5049905;28;20043;-69
2022/06/16 03:28:29;;;;;;;18.30;9.13;;;;;;;;;;5051421;28;20025;-69
2022/06/16 03:30:54;;;;;;;15.90;8.87;;;;;;;;;;5049152;28;20507;-69
2022/06/16 03:33:20;;;;;;;17.67;8.37;;;;;;;;;;5049476;28;20381;-69
2022/06/16 03:35:45;;;;;;;15.20;7.77;;;;;;;;;;5051030;28;20021;-69
2022/06/16 03:38:19;;;;;;;14.80;8.03;;;;;;;;;;5039718;28;20397;-70
2022/06/16 03:40:44;;;;;;;22.03;7.97;;;;;;;;;;5046099;28;20017;-69
2022/06/16 03:43:10;;;;;;;17.40;8.57;;;;;;;;;;5050693;28;20028;-69
2022/06/16 03:45:36;;;;;;;14.87;8.13;;;;;;;;;;5049216;28;20056;-69
2022/06/16 03:48:01;;;;;;;12.63;7.57;;;;;;;;;;5049732;28;20124;-69
2022/06/16 03:50:26;;;;;;;15.97;7.77;;;;;;;;;;5049375;28;20366;-69
2022/06/16 03:52:52;;;;;;;13.70;6.97;;;;;;;;;;5049608;28;20025;-69
2022/06/16 03:55:17;;;;;;;11.87;7.30;;;;;;;;;;5050168;28;20025;-70
2022/06/16 03:57:42;;;;;;;13.00;6.93;;;;;;;;;;5049167;28;20408;-69
2022/06/16 04:00:08;;;;;;;15.57;7.03;;;;;;;;;;5046552;28;20414;-69
2022/06/16 04:02:33;;;;;;;15.27;7.10;;;;;;;;;;5051325;28;20469;-69
2022/06/16 04:05:00;;;;;;;16.40;7.07;;;;;;;;;;5048412;28;20028;-69
2022/06/16 04:07:26;;;;;;;18.30;7.10;;;;;;;;;;5048674;28;20021;-69
2022/06/16 04:09:51;;;;;;;21.00;7.20;;;;;;;;;;5049605;28;20028;-69
2022/06/16 04:12:16;;;;;;;11.87;6.63;;;;;;;;;;5051514;28;20088;-70
2022/06/16 04:14:41;;;;;;;10.90;6.00;;;;;;;;;;5049779;28;20052;-69
2022/06/16 04:17:07;;;;;;;15.80;5.83;;;;;;;;;;5049210;28;20060;-69
2022/06/16 04:19:32;;;;;;;15.73;5.90;;;;;;;;;;5049366;28;20028;-69
2022/06/16 04:21:57;;;;;;;12.73;6.13;;;;;;;;;;5050681;28;20040;-69
2022/06/16 04:24:23;;;;;;;10.90;5.87;;;;;;;;;;5049831;28;20040;-70
2022/06/16 04:26:51;;;;;;;10.60;5.93;;;;;;;;;;5049184;28;20025;-69
2022/06/16 04:29:17;;;;;;;12.60;6.30;;;;;;;;;;5049660;28;20021;-69
2022/06/16 04:31:42;;;;;;;13.47;6.80;;;;;;;;;;5048761;28;20496;-69
2022/06/16 04:34:09;;;;;;;13.27;6.17;;;;;;;;;;5047187;28;20028;-69
2022/06/16 04:36:34;;;;;;;12.53;6.10;;;;;;;;;;5046897;28;20017;-69
2022/06/16 04:39:00;;;;;;;12.73;6.77;;;;;;;;;;5050464;28;20400;-70
2022/06/16 04:41:25;;;;;;;12.80;6.17;;;;;;;;;;5049444;28;20033;-70
2022/06/16 04:43:51;;;;;;;14.63;6.70;;;;;;;;;;5048606;28;20097;-69
2022/06/16 04:46:18;;;;;;;13.57;6.10;;;;;;;;;;5048941;28;20037;-69
2022/06/16 04:48:43;;;;;;;17.83;6.27;;;;;;;;;;5051532;28;20055;-69
2022/06/16 04:51:09;;;;;;;17.03;6.17;;;;;;;;;;5049511;28;20116;-69
2022/06/16 04:53:34;;;;;;;11.73;5.90;;;;;;;;;;5049033;28;20028;-69
2022/06/16 04:56:00;;;;;;;9.47;5.93;;;;;;;;;;5049836;28;20032;-69
2022/06/16 04:58:26;;;;;;;15.33;5.53;;;;;;;;;;5048352;28;20028;-69
2022/06/16 05:00:52;;;;;;;9.87;4.97;;;;;;;;;;5046788;28;20035;-69
2022/06/16 05:03:18;;;;;;;9.70;4.80;;;;;;;;;;5042995;28;20075;-69
2022/06/16 05:05:45;;;;;;;10.43;4.53;;;;;;;;;;5047050;28;20534;-69
2022/06/16 05:08:10;;;;;;;12.30;4.60;;;;;;;;;;5047692;28;20489;-69
2022/06/16 05:10:35;;;;;;;7.80;4.47;;;;;;;;;;5049058;28;20025;-69
2022/06/16 05:13:00;;;;;;;9.53;4.53;;;;;;;;;;5046878;28;20724;-69
2022/06/16 05:15:26;;;;;;;10.27;4.20;;;;;;;;;;5043753;28;20099;-69
2022/06/16 05:17:51;;;;;;;8.70;3.80;;;;;;;;;;5048917;28;20030;-69
2022/06/16 05:20:16;;;;;;;8.23;4.07;;;;;;;;;;5049382;28;20038;-69
2022/06/16 05:22:41;;;;;;;9.27;3.70;;;;;;;;;;5052486;28;20039;-69
2022/06/16 05:25:07;;;;;;;7.28;3.72;;;;;;;;;;5052201;28;20119;-69
2022/06/16 05:27:32;;;;;;;9.93;4.10;;;;;;;;;;5049915;28;20040;-69
2022/06/16 05:29:57;;;;;;;8.63;3.60;;;;;;;;;;5048279;28;20032;-69
2022/06/16 05:32:23;;;;;;;8.60;3.20;;;;;;;;;;5047369;28;20167;-69
2022/06/16 05:34:48;;;;;;;9.82;3.00;;;;;;;;;;5045843;28;20029;-69
2022/06/16 05:37:13;;;;;;;8.65;3.00;;;;;;;;;;5050283;28;20041;-69
2022/06/16 05:39:39;;;;;;;7.95;2.88;;;;;;;;;;5049003;28;20462;-69
2022/06/16 05:42:04;;;;;;;5.20;2.60;;;;;;;;;;5046333;28;20548;-69
2022/06/16 05:44:30;;;;;;;8.27;3.10;;;;;;;;;;5048816;28;20028;-69
2022/06/16 05:46:55;;;;;;;5.20;2.50;;;;;;;;;;5050175;28;20035;-70
2022/06/16 05:49:21;;;;;;;6.20;2.55;;;;;;;;;;5051124;28;20102;-69
2022/06/16 05:51:47;;;;;;;6.55;2.30;;;;;;;;;;5051869;28;20029;-69
2022/06/16 05:54:12;;;;;;;6.15;2.28;;;;;;;;;;5052187;28;20036;-69
2022/06/16 05:56:37;;;;;;;8.00;2.58;;;;;;;;;;5050607;28;20027;-69
2022/06/16 05:59:02;;;;;;;4.85;2.13;;;;;;;;;;5049820;28;20104;-70
2022/06/16 06:01:28;;;;;;;6.13;2.13;;;;;;;;;;5046426;28;20466;-69
2022/06/16 06:03:53;;;;;;;6.25;2.20;;;;;;;;;;5048138;28;20029;-69
2022/06/16 06:06:18;;;;;;;7.45;2.75;;;;;;;;;;5050560;28;20037;-69
2022/06/16 06:17:03;;;;;;;14.45;3.08;;;;;;;;;;5047906;28;20039;-70
2022/06/16 06:19:31;;;;;;;7.32;2.47;;;;;;;;;;5041569;28;20033;-70
2022/06/16 06:22:10;;;;;;;6.40;2.25;;;;;;;;;;5037268;28;20114;-69
2022/06/16 06:24:37;;;;;;;6.53;2.58;;;;;;;;;;5046702;28;20358;-69
2022/06/16 06:27:10;;;;;;;7.05;2.22;;;;;;;;;;5049403;28;20021;-69
2022/06/16 06:29:35;;;;;;;6.30;2.20;;;;;;;;;;5051382;28;20481;-69
2022/06/16 06:32:01;;;;;;;5.63;2.00;;;;;;;;;;5048624;28;20055;-69
2022/06/16 06:34:27;;;;;;;7.90;2.65;;;;;;;;;;5049478;28;20021;-69
2022/06/16 06:36:52;;;;;;;6.50;2.20;;;;;;;;;;5051907;28;20035;-69
2022/06/16 06:39:17;;;;;;;6.78;1.90;;;;;;;;;;5053360;28;20043;-69
2022/06/16 06:41:43;;;;;;;5.00;1.75;;;;;;;;;;5053088;28;20079;-69
2022/06/16 06:44:09;;;;;;;5.07;1.98;;;;;;;;;;5053102;28;20471;-69
2022/06/16 06:46:34;;;;;;;4.18;1.52;;;;;;;;;;5052629;28;20017;-69
2022/06/16 06:48:59;;;;;;;7.18;1.50;;;;;;;;;;5052973;28;20108;-68
2022/06/16 06:51:24;;;;;;;5.65;1.50;;;;;;;;;;5052847;28;20029;-68
2022/06/16 06:53:50;;;;;;;6.53;1.60;;;;;;;;;;5052014;28;20434;-68
2022/06/16 06:56:15;;;;;;;4.57;1.58;;;;;;;;;;5035081;28;20028;-68
2022/06/16 06:58:41;;;;;;;3.25;1.33;;;;;;;;;;5052764;28;20017;-69
2022/06/16 07:01:06;;;;;;;5.07;1.98;;;;;;;;;;5052905;28;20021;-68
2022/06/16 07:03:32;;;;;;;4.63;1.83;;;;;;;;;;5051443;28;20024;-68
2022/06/16 07:06:00;;;;;;;6.75;1.85;;;;;;;;;;5050691;28;20018;-68
2022/06/16 07:08:26;;;;;;;12.38;2.10;;;;;;;;;;5045452;28;20127;-67
2022/06/16 07:10:51;;;;;;;6.03;1.70;;;;;;;;;;5051344;28;20029;-67
2022/06/16 07:13:16;;;;;;;5.88;1.65;;;;;;;;;;5052331;28;20021;-70
2022/06/16 07:15:42;;;;;;;4.85;1.80;;;;;;;;;;5051705;28;20021;-70
2022/06/16 07:18:07;;;;;;;5.13;1.60;;;;;;;;;;5051391;28;20075;-70
2022/06/16 07:20:33;;;;;;;7.47;1.70;;;;;;;;;;5051690;28;20527;-68
2022/06/16 07:22:59;;;;;;;5.57;1.60;;;;;;;;;;5050880;28;20028;-68
2022/06/16 07:25:24;;;;;;;5.38;1.48;;;;;;;;;;5049597;28;20027;-68
2022/06/16 07:27:50;;;;;;;4.18;1.40;;;;;;;;;;5052730;28;20021;-68
2022/06/16 07:30:17;;;;;;;5.30;1.50;;;;;;;;;;5051626;28;20384;-68
2022/06/16 07:32:43;;;;;;;4.88;1.50;;;;;;;;;;5051739;28;20051;-68
2022/06/16 07:35:09;;;;;;;3.78;1.60;;;;;;;;;;5049788;28;20021;-68
2022/06/16 07:37:35;;;;;;;4.80;1.50;;;;;;;;;;5052115;28;20021;-69
2022/06/16 07:40:01;;;;;;;7.00;1.45;;;;;;;;;;5050485;28;20457;-70
2022/06/16 07:42:27;;;;;;;4.20;1.35;;;;;;;;;;5048573;28;20029;-71
2022/06/16 07:44:52;;;;;;;4.82;1.30;;;;;;;;;;5051392;28;20079;-70
2022/06/16 07:47:17;;;;;;;5.30;1.10;;;;;;;;;;5051220;28;20033;-70
2022/06/16 07:49:43;;;;;;;9.23;1.67;;;;;;;;;;5051723;28;20036;-70
2022/06/16 07:52:08;;;;;;;3.67;1.08;;;;;;;;;;5052123;28;20052;-70
2022/06/16 07:54:34;;;;;;;3.70;0.93;;;;;;;;;;5050542;28;20021;-70
2022/06/16 07:56:59;;;;;;;4.32;1.00;;;;;;;;;;5050725;28;20017;-70
2022/06/16 07:59:24;;;;;;;3.15;0.90;;;;;;;;;;5051318;28;20437;-70
2022/06/16 08:01:50;;;;;;;2.70;1.15;;;;;;;;;;5051361;28;20039;-68
2022/06/16 08:04:15;;;;;;;3.60;1.00;;;;;;;;;;5034732;28;20778;-68
2022/06/16 08:06:41;;;;;;;4.35;1.10;;;;;;;;;;5048876;28;20465;-68
2022/06/16 08:09:06;;;;;;;3.90;1.00;;;;;;;;;;5050847;28;20106;-68
2022/06/16 08:14:15;;;;;;;3.63;0.90;;;;;;;;;;5049908;28;20016;-68
2022/06/16 08:16:41;;;;;;;5.20;1.10;;;;;;;;;;5048003;28;20453;-68
2022/06/16 08:19:07;;;;;;;3.60;1.00;;;;;;;;;;5050324;28;20039;-68
2022/06/16 08:21:32;;;;;;;2.70;0.88;;;;;;;;;;5049726;28;20025;-68
2022/06/16 08:23:57;;;;;;;4.82;1.15;;;;;;;;;;5049959;28;20036;-68
2022/06/16 08:26:23;;;;;;;3.33;1.00;;;;;;;;;;5048848;28;20027;-68
2022/06/16 08:28:49;;;;;;;4.68;1.40;;;;;;;;;;5050612;28;20073;-68
2022/06/16 08:31:17;;;;;;;4.53;0.93;;;;;;;;;;5052133;28;20047;-68
2022/06/16 08:33:43;;;;;;;3.92;0.80;;;;;;;;;;5051320;28;20017;-68
2022/06/16 08:36:08;;;;;;;4.47;1.00;;;;;;;;;;5050661;28;20519;-68
2022/06/16 08:38:33;;;;;;;3.25;0.85;;;;;;;;;;5051229;28;20055;-68
2022/06/16 08:41:13;;;;;;;5.65;1.25;;;;;;;;;;5051260;28;20040;-68
2022/06/16 08:44:00;;;;;;;3.63;0.90;;;;;;;;;;5051572;28;20043;-68
2022/06/16 08:46:27;;;;;;;4.40;0.90;;;;;;;;;;5051296;28;20028;-68
2022/06/16 08:49:11;;;;;;;2.65;0.90;;;;;;;;;;5050883;28;20021;-68
2022/06/16 08:52:12;;;;;;;2.25;0.70;;;;;;;;;;5032112;28;20481;-68
2022/06/16 08:54:40;;;;;;;4.28;1.00;;;;;;;;;;4990838;28;20092;-68
2022/06/16 08:57:05;;;;;;;3.15;0.88;;;;;;;;;;4992567;28;20075;-68
2022/06/16 08:59:36;;;;;;;3.20;0.97;;;;;;;;;;4992406;28;20104;-69
2022/06/16 09:02:11;;;;;;;3.08;0.80;;;;;;;;;;4992933;28;20288;-69
2022/06/16 09:04:39;;;;;;;4.50;1.08;;;;;;;;;;4993616;28;20039;-68
2022/06/16 09:07:10;;;;;;;3.72;0.90;;;;;;;;;;4992946;28;20053;-68
2022/06/16 09:12:45;;;;;;;2.83;0.70;;;;;;;;;;4992146;28;20061;-68
2022/06/16 09:15:27;;;;;;;4.18;0.80;;;;;;;;;;4981858;28;20112;-69
2022/06/16 09:18:00;;;;;;;3.60;0.70;;;;;;;;;;4992446;28;20498;-69
2022/06/16 09:20:32;;;;;;;3.90;0.75;;;;;;;;;;4981396;28;20026;-69
2022/06/16 09:23:03;;;;;;;3.25;0.68;;;;;;;;;;4992586;28;20508;-69
2022/06/16 09:25:38;;;;;;;2.38;0.60;;;;;;;;;;4992173;28;20050;-71
2022/06/16 09:28:09;;;;;;;2.85;0.60;;;;;;;;;;5009458;28;20104;-75
2022/06/16 09:30:37;;;;;;;5.13;0.68;;;;;;;;;;5053641;28;20080;-71
2022/06/16 09:33:08;;;;;;;2.38;0.60;;;;;;;;;;5053814;28;20029;-71
2022/06/16 09:35:40;;;;;;;3.55;0.63;;;;;;;;;;5052042;28;20111;-71
2022/06/16 09:38:08;;;;;;;4.38;0.90;;;;;;;;;;5054489;28;20067;-71
2022/06/16 09:40:38;;;;;;;5.03;1.08;;;;;;;;;;5052658;28;20032;-71
2022/06/16 09:43:22;;;;;;;4.05;0.90;;;;;;;;;;5052584;28;20036;-71
2022/06/16 09:46:20;;;;;;;1.73;0.50;;;;;;;;;;5054454;28;20099;-71
2022/06/16 09:48:49;;;;;;;4.50;0.90;;;;;;;;;;5020170;28;20048;-71
2022/06/16 09:51:21;;;;;;;3.25;0.70;;;;;;;;;;5053902;28;20124;-69
2022/06/16 09:54:12;;;;;;;3.58;0.70;;;;;;;;;;5054608;28;20358;-69
2022/06/16 09:56:46;;;;;;;3.67;0.88;;;;;;;;;;5030448;28;20167;-69
2022/06/16 09:59:18;;;;;;;5.28;0.90;;;;;;;;;;5053643;28;20021;-69
2022/06/16 10:01:46;;;;;;;5.55;1.13;;;;;;;;;;5052470;28;20017;-69
2022/06/16 10:04:12;;;;;;;5.40;1.10;;;;;;;;;;5053959;28;20061;-69
2022/06/16 10:06:48;;;;;;;2.92;0.77;;;;;;;;;;5052419;28;20053;-69
2022/06/16 10:09:27;;;;;;;3.83;0.98;;;;;;;;;;5050216;28;20516;-69
2022/06/16 10:11:59;;;;;;;6.43;1.08;;;;;;;;;;5034363;28;20028;-69
2022/06/16 10:14:24;;;;;;;7.30;1.00;;;;;;;;;;5037761;28;20096;-69
2022/06/16 10:16:52;;;;;;;3.28;0.98;;;;;;;;;;5053044;28;20052;-69
2022/06/16 10:19:18;;;;;;;4.80;0.98;;;;;;;;;;5053971;28;20571;-69
2022/06/16 10:21:44;;;;;;;4.30;1.08;;;;;;;;;;5053443;28;20044;-69
2022/06/16 10:24:09;;;;;;;3.08;0.80;;;;;;;;;;5053706;28;20032;-69
2022/06/16 10:26:35;;;;;;;4.55;1.00;;;;;;;;;;5053752;28;20432;-69
2022/06/16 10:29:19;;;;;;;6.80;1.10;;;;;;;;;;5052880;28;20032;-69
2022/06/16 10:31:45;;;;;;;3.60;0.85;;;;;;;;;;5060477;28;20500;-69
2022/06/16 10:34:27;;;;;;;7.18;1.23;;;;;;;;;;5052610;28;20125;-69
2022/06/16 10:36:59;;;;;;;3.58;0.85;;;;;;;;;;5053690;28;20761;-69
2022/06/16 10:39:29;;;;;;;3.05;1.00;;;;;;;;;;5052810;28;20021;-69
2022/06/16 10:42:04;;;;;;;5.45;1.02;;;;;;;;;;5053013;28;20031;-69
2022/06/16 10:44:31;;;;;;;6.30;1.23;;;;;;;;;;5053143;28;20029;-69
2022/06/16 10:46:58;;;;;;;2.92;0.93;;;;;;;;;;5053401;28;20021;-69
2022/06/16 10:49:26;;;;;;;4.00;1.00;;;;;;;;;;5052522;28;20075;-69
2022/06/16 10:51:54;;;;;;;3.75;0.88;;;;;;;;;;5051922;28;20017;-69
2022/06/16 10:54:33;;;;;;;2.00;0.77;;;;;;;;;;5052506;28;20127;-69
2022/06/16 10:57:13;;;;;;;4.05;1.00;;;;;;;;;;5052028;28;20477;-69
2022/06/16 10:59:41;;;;;;;4.07;0.93;;;;;;;;;;5053452;28;20036;-69
2022/06/16 11:02:22;;;;;;;2.67;1.00;;;;;;;;;;5040553;28;20037;-69
2022/06/16 11:04:55;;;;;;;4.05;0.80;;;;;;;;;;5052513;28;20025;-69
2022/06/16 11:07:21;;;;;;;4.43;1.10;;;;;;;;;;5052947;28;20049;-69
2022/06/16 11:09:47;;;;;;;3.25;0.93;;;;;;;;;;5051518;28;20043;-70
2022/06/16 11:12:20;;;;;;;5.07;1.58;;;;;;;;;;5047773;28;20112;-70
2022/06/16 11:14:46;;;;;;;4.07;1.00;;;;;;;;;;5052770;28;20025;-70
2022/06/16 11:17:29;;;;;;;2.47;0.80;;;;;;;;;;5052577;28;20053;-70
2022/06/16 11:20:18;;;;;;;3.53;0.88;;;;;;;;;;5038129;28;20392;-70
2022/06/16 11:22:45;;;;;;;2.35;1.00;;;;;;;;;;5023122;28;20098;-70
2022/06/16 11:25:19;;;;;;;3.50;0.88;;;;;;;;;;5050288;28;20025;-70
2022/06/16 11:28:04;;;;;;;5.53;1.00;;;;;;;;;;5050358;28;20469;-70
2022/06/16 11:30:29;;;;;;;4.57;1.20;;;;;;;;;;5051429;28;20035;-70
2022/06/16 11:32:54;;;;;;;2.03;0.80;;;;;;;;;;5052505;28;20013;-70
2022/06/16 11:35:21;;;;;;;4.40;1.10;;;;;;;;;;5050926;28;20862;-70
2022/06/16 11:37:50;;;;;;;3.75;0.85;;;;;;;;;;5051993;28;20601;-70
2022/06/16 11:40:31;;;;;;;5.32;1.10;;;;;;;;;;5050377;28;20028;-70
2022/06/16 11:43:06;;;;;;;2.45;0.70;;;;;;;;;;5050754;28;20497;-70
2022/06/16 11:45:31;;;;;;;3.08;0.80;;;;;;;;;;5050483;28;20093;-70
2022/06/16 11:47:59;;;;;;;2.90;0.90;;;;;;;;;;5052312;28;20419;-70
2022/06/16 11:50:33;;;;;;;11.75;1.30;;;;;;;;;;5050910;28;20067;-70
2022/06/16 11:53:04;;;;;;;4.47;0.90;;;;;;;;;;5052149;28;20025;-69
2022/06/16 11:55:38;;;;;;;4.75;1.00;;;;;;;;;;5051441;28;20694;-69
2022/06/16 11:58:06;;;;;;;4.72;1.00;;;;;;;;;;5034018;28;20079;-69
2022/06/16 12:00:36;;;;;;;4.50;1.27;;;;;;;;;;5050350;28;20541;-69
2022/06/16 12:03:27;;;;;;;7.23;1.10;;;;;;;;;;5050753;28;20029;-69
2022/06/16 12:06:11;;;;;;;6.22;1.50;;;;;;;;;;5042733;28;20025;-69
2022/06/16 12:08:46;;;;;;;7.57;1.38;;;;;;;;;;5049551;28;20257;-69
2022/06/16 12:11:16;;;;;;;5.57;1.50;;;;;;;;;;5050070;28;20040;-69
2022/06/16 12:13:56;;;;;;;5.75;1.42;;;;;;;;;;5050752;28;20032;-70
2022/06/16 12:16:40;;;;;;;5.95;1.55;;;;;;;;;;5050142;28;20025;-69
2022/06/16 12:19:11;;;;;;;3.85;1.00;;;;;;;;;;5050786;28;20025;-69
2022/06/16 12:21:50;;;;;;;5.80;1.40;;;;;;;;;;5049984;28;20025;-69
2022/06/16 12:24:24;;;;;;;6.32;1.20;;;;;;;;;;5049972;28;20033;-69
2022/06/16 12:27:01;;;;;;;4.75;1.20;;;;;;;;;;5051225;28;20037;-69
2022/06/16 12:29:45;;;;;;;3.60;1.10;;;;;;;;;;5047418;28;20037;-69
2022/06/16 12:32:19;;;;;;;8.80;1.10;;;;;;;;;;5065038;28;20411;-69
2022/06/16 12:34:53;;;;;;;4.63;1.00;;;;;;;;;;5050075;28;20017;-69
2022/06/16 12:37:20;;;;;;;3.75;0.98;;;;;;;;;;5051490;28;20104;-69
2022/06/16 12:39:54;;;;;;;5.88;1.20;;;;;;;;;;5051873;28;20066;-69
2022/06/16 12:42:23;;;;;;;4.88;1.40;;;;;;;;;;5050880;28;20087;-69
2022/06/16 12:45:07;;;;;;;6.75;1.55;;;;;;;;;;5051014;28;20017;-69
2022/06/16 12:47:38;;;;;;;5.78;1.10;;;;;;;;;;5051023;28;20093;-70
2022/06/16 12:50:04;;;;;;;4.90;1.17;;;;;;;;;;5050705;28;20021;-70
2022/06/16 12:52:34;;;;;;;4.05;1.00;;;;;;;;;;5051386;28;20500;-70
2022/06/16 12:55:15;;;;;;;5.15;1.10;;;;;;;;;;5051496;28;20040;-70
2022/06/16 12:57:42;;;;;;;5.82;1.20;;;;;;;;;;5051123;28;20465;-69
2022/06/16 13:00:10;;;;;;;2.70;1.02;;;;;;;;;;5051199;28;20529;-69
2022/06/16 13:02:47;;;;;;;3.35;1.00;;;;;;;;;;5051157;28;20025;-70
2022/06/16 13:05:13;;;;;;;3.58;1.05;;;;;;;;;;5053000;28;20108;-70
2022/06/16 13:07:41;;;;;;;2.63;0.88;;;;;;;;;;5057252;28;20584;-70
2022/06/16 13:10:07;;;;;;;4.32;1.00;;;;;;;;;;5050448;28;20473;-70
2022/06/16 13:12:34;;;;;;;3.67;1.13;;;;;;;;;;5049430;28;20033;-70
2022/06/16 13:14:59;;;;;;;3.20;1.00;;;;;;;;;;5047363;28;20090;-70
2022/06/16 13:17:27;;;;;;;5.45;1.02;;;;;;;;;;5046409;28;20013;-70
2022/06/16 13:19:55;;;;;;;4.30;0.90;;;;;;;;;;5049744;28;20051;-70
2022/06/16 13:22:39;;;;;;;4.32;1.10;;;;;;;;;;5050122;28;20112;-70
2022/06/16 13:25:08;;;;;;;3.83;1.02;;;;;;;;;;5049133;28;20071;-69
2022/06/16 13:27:36;;;;;;;4.50;1.10;;;;;;;;;;5043700;28;20033;-69
2022/06/16 13:30:04;;;;;;;4.40;1.20;;;;;;;;;;5049233;28;20070;-69
2022/06/16 13:32:33;;;;;;;3.15;1.02;;;;;;;;;;5050270;28;20393;-70
2022/06/16 13:34:59;;;;;;;3.00;0.90;;;;;;;;;;5050033;28;20099;-70
2022/06/16 13:37:27;;;;;;;3.15;1.00;;;;;;;;;;5050816;28;20137;-69
2022/06/16 13:39:55;;;;;;;6.28;1.40;;;;;;;;;;5050713;28;20511;-69
2022/06/16 13:42:41;;;;;;;6.18;1.25;;;;;;;;;;5055527;28;20091;-69
2022/06/16 13:45:12;;;;;;;10.07;1.33;;;;;;;;;;5043723;28;20040;-69
2022/06/16 13:47:57;;;;;;;3.00;1.15;;;;;;;;;;5054515;28;20035;-69
2022/06/16 13:50:39;;;;;;;3.15;1.02;;;;;;;;;;5053658;28;20029;-69
2022/06/16 13:53:05;;;;;;;4.75;1.08;;;;;;;;;;5027401;28;20017;-69
2022/06/16 13:55:32;;;;;;;3.50;1.10;;;;;;;;;;5045558;28;20104;-69
2022/06/16 13:58:16;;;;;;;3.97;1.20;;;;;;;;;;5053924;28;20032;-69
2022/06/16 14:00:42;;;;;;;2.38;1.00;;;;;;;;;;5050731;28;20025;-68
2022/06/16 14:03:16;;;;;;;5.95;0.90;;;;;;;;;;5050468;28;20485;-69
2022/06/16 14:05:48;;;;;;;4.18;1.08;;;;;;;;;;5053487;28;20376;-70
2022/06/16 14:08:14;;;;;;;2.90;1.00;;;;;;;;;;5054256;28;20603;-71
2022/06/16 14:10:50;;;;;;;3.33;1.00;;;;;;;;;;5046411;28;20095;-70
2022/06/16 14:13:18;;;;;;;5.07;1.25;;;;;;;;;;5054926;28;20021;-73
2022/06/16 14:15:50;;;;;;;5.20;0.90;;;;;;;;;;5051266;28;20074;-73
2022/06/16 14:18:15;;;;;;;2.78;1.00;;;;;;;;;;5053128;28;20025;-72
2022/06/16 14:20:43;;;;;;;2.83;0.80;;;;;;;;;;5043196;28;20108;-72
2022/06/16 14:23:41;;;;;;;3.78;1.10;;;;;;;;;;5046170;28;20275;-72
2022/06/16 14:26:08;;;;;;;4.05;0.98;;;;;;;;;;5014923;28;20037;-73
2022/06/16 14:28:35;;;;;;;4.80;1.10;;;;;;;;;;5050866;28;20075;-72
2022/06/16 14:31:11;;;;;;;5.30;1.20;;;;;;;;;;5051423;28;20029;-72
2022/06/16 14:33:49;;;;;;;4.05;0.98;;;;;;;;;;5044314;28;20021;-72
2022/06/16 14:36:27;;;;;;;5.07;0.98;;;;;;;;;;5037081;28;20024;-70
2022/06/16 14:38:53;;;;;;;3.67;0.95;;;;;;;;;;5042634;28;20405;-70
2022/06/16 14:41:27;;;;;;;3.22;1.10;;;;;;;;;;5043317;28;20040;-70
2022/06/16 14:44:09;;;;;;;2.22;0.82;;;;;;;;;;5046810;28;20512;-69
2022/06/16 14:46:37;;;;;;;2.85;0.90;;;;;;;;;;5038936;28;20056;-70
2022/06/16 14:49:05;;;;;;;4.03;1.20;;;;;;;;;;5041711;28;20020;-70
2022/06/16 14:51:33;;;;;;;3.38;1.00;;;;;;;;;;5036489;28;20029;-70
2022/06/16 14:54:04;;;;;;;3.90;1.08;;;;;;;;;;5047662;28;20020;-68
2022/06/16 14:56:38;;;;;;;4.15;1.10;;;;;;;;;;5045561;28;20567;-69
2022/06/16 14:59:07;;;;;;;3.05;1.15;;;;;;;;;;5052912;28;20029;-69
2022/06/16 15:01:33;;;;;;;3.78;1.10;;;;;;;;;;5053013;28;20025;-69
2022/06/16 15:03:59;;;;;;;4.15;1.10;;;;;;;;;;5052728;28;20028;-69
2022/06/16 15:06:25;;;;;;;5.70;1.48;;;;;;;;;;5052886;28;20032;-69
2022/06/16 15:08:55;;;;;;;4.80;1.20;;;;;;;;;;5051414;28;20384;-68
2022/06/16 15:11:22;;;;;;;4.50;1.20;;;;;;;;;;5051633;28;20052;-68